sensor_id;sensor_type;location;lat;lon;timestamp;pressure;altitude;pressure_sealevel;temperature;humidity
6530;BME280;3298;42.688;23.366;2023-04-01T00:01:28;51739.59;;;-145.06;53.73
6530;BME280;3298;42.688;23.366;2023-04-01T00:03:55;51721.19;;;-145.06;53.90
6530;BME280;3298;42.688;23.366;2023-04-01T00:06:22;51713.00;;;-145.06;54.00
6530;BME280;3298;42.688;23.366;2023-04-01T00:08:49;51713.00;;;-145.06;54.02
6530;BME280;3298;42.688;23.366;2023-04-01T00:11:16;51725.28;;;-145.06;54.57
6530;BME280;3298;42.688;23.366;2023-04-01T00:13:43;51725.28;;;-145.06;54.62
6530;BME280;3298;42.688;23.366;2023-04-01T00:16:11;51725.28;;;-145.06;54.23
6530;BME280;3298;42.688;23.366;2023-04-01T00:18:39;51739.59;;;-145.06;54.63
6530;BME280;3298;42.688;23.366;2023-04-01T00:21:06;51749.84;;;-145.06;54.80
6530;BME280;3298;42.688;23.366;2023-04-01T00:23:33;51745.75;;;-145.06;54.44
6530;BME280;3298;42.688;23.366;2023-04-01T00:26:00;51753.94;;;-145.06;54.36
6530;BME280;3298;42.688;23.366;2023-04-01T00:28:28;51733.47;;;-145.06;54.74
6530;BME280;3298;42.688;23.366;2023-04-01T00:30:55;51719.13;;;-145.06;54.79
6530;BME280;3298;42.688;23.366;2023-04-01T00:33:22;51721.19;;;-145.06;55.25
6530;BME280;3298;42.688;23.366;2023-04-01T00:35:50;51731.41;;;-145.06;55.50
6530;BME280;3298;42.688;23.366;2023-04-01T00:38:17;51713.00;;;-145.06;55.40
6530;BME280;3298;42.688;23.366;2023-04-01T00:40:46;51739.59;;;-145.06;56.16
6530;BME280;3298;42.688;23.366;2023-04-01T00:43:14;51721.19;;;-145.06;56.11
6530;BME280;3298;42.688;23.366;2023-04-01T00:45:44;51725.28;;;-145.06;55.68
6530;BME280;3298;42.688;23.366;2023-04-01T00:48:15;51713.00;;;-145.06;55.67
6530;BME280;3298;42.688;23.366;2023-04-01T00:50:47;51737.56;;;-145.06;55.39
6530;BME280;3298;42.688;23.366;2023-04-01T00:53:18;51735.50;;;-145.06;56.43
6530;BME280;3298;42.688;23.366;2023-04-01T00:55:50;51731.41;;;-145.06;55.99
6530;BME280;3298;42.688;23.366;2023-04-01T00:58:21;51741.66;;;-145.06;56.12
6530;BME280;3298;42.688;23.366;2023-04-01T01:00:50;51745.75;;;-145.06;56.72
6530;BME280;3298;42.688;23.366;2023-04-01T01:03:17;51737.56;;;-145.06;56.71
6530;BME280;3298;42.688;23.366;2023-04-01T01:08:55;51708.91;;;-145.06;57.13
6530;BME280;3298;42.688;23.366;2023-04-01T01:11:30;51733.47;;;-145.06;57.31
6530;BME280;3298;42.688;23.366;2023-04-01T01:14:09;51700.72;;;-145.06;57.29
6530;BME280;3298;42.688;23.366;2023-04-01T01:16:42;51715.03;;;-145.06;57.79
6530;BME280;3298;42.688;23.366;2023-04-01T01:19:20;51729.38;;;-145.06;57.83
6530;BME280;3298;42.688;23.366;2023-04-01T01:22:05;51753.94;;;-145.06;58.38
6530;BME280;3298;42.688;23.366;2023-04-01T01:24:56;51762.13;;;-145.06;58.15
6530;BME280;3298;42.688;23.366;2023-04-01T01:27:29;51721.19;;;-145.06;57.99
6530;BME280;3298;42.688;23.366;2023-04-01T01:30:27;51708.91;;;-145.06;57.98
6530;BME280;3298;42.688;23.366;2023-04-01T01:33:19;51719.13;;;-145.06;57.47
6530;BME280;3298;42.688;23.366;2023-04-01T01:35:53;51729.38;;;-145.06;57.01
6530;BME280;3298;42.688;23.366;2023-04-01T01:38:23;51719.13;;;-145.06;56.58
6530;BME280;3298;42.688;23.366;2023-04-01T01:40:52;51741.66;;;-145.06;55.77
6530;BME280;3298;42.688;23.366;2023-04-01T01:43:21;51733.47;;;-145.06;56.00
6530;BME280;3298;42.688;23.366;2023-04-01T01:45:51;51710.94;;;-145.06;55.59
6530;BME280;3298;42.688;23.366;2023-04-01T01:48:19;51745.75;;;-145.06;55.49
6530;BME280;3298;42.688;23.366;2023-04-01T01:50:47;51737.56;;;-145.06;54.90
6530;BME280;3298;42.688;23.366;2023-04-01T01:53:16;51766.22;;;-145.06;55.38
6530;BME280;3298;42.688;23.366;2023-04-01T01:55:44;51729.38;;;-145.06;54.96
6530;BME280;3298;42.688;23.366;2023-04-01T01:58:15;51739.59;;;-145.06;54.66
6530;BME280;3298;42.688;23.366;2023-04-01T02:00:45;51755.97;;;-145.06;53.88
6530;BME280;3298;42.688;23.366;2023-04-01T02:03:15;51753.94;;;-145.06;54.36
6530;BME280;3298;42.688;23.366;2023-04-01T02:05:42;51735.50;;;-145.06;54.30
6530;BME280;3298;42.688;23.366;2023-04-01T02:08:12;51762.13;;;-145.06;54.02
6530;BME280;3298;42.688;23.366;2023-04-01T02:10:43;51751.88;;;-145.06;54.28
6530;BME280;3298;42.688;23.366;2023-04-01T02:13:17;51741.66;;;-145.06;54.32
6530;BME280;3298;42.688;23.366;2023-04-01T02:15:48;51731.41;;;-145.06;53.71
6530;BME280;3298;42.688;23.366;2023-04-01T02:18:17;51745.75;;;-145.06;54.20
6530;BME280;3298;42.688;23.366;2023-04-01T02:20:45;51762.13;;;-145.06;54.73
6530;BME280;3298;42.688;23.366;2023-04-01T02:23:13;51721.19;;;-145.06;54.86
6530;BME280;3298;42.688;23.366;2023-04-01T02:25:42;51741.66;;;-145.06;54.75
6530;BME280;3298;42.688;23.366;2023-04-01T02:28:10;51729.38;;;-145.06;54.33
6530;BME280;3298;42.688;23.366;2023-04-01T02:30:42;51770.31;;;-145.06;54.87
6530;BME280;3298;42.688;23.366;2023-04-01T02:33:10;51729.38;;;-145.06;54.31
6530;BME280;3298;42.688;23.366;2023-04-01T02:35:37;51764.16;;;-145.06;54.57
6530;BME280;3298;42.688;23.366;2023-04-01T02:38:05;51729.38;;;-145.06;54.13
6530;BME280;3298;42.688;23.366;2023-04-01T02:40:46;51733.47;;;-145.06;54.68
6530;BME280;3298;42.688;23.366;2023-04-01T02:43:13;51739.59;;;-145.06;54.50
6530;BME280;3298;42.688;23.366;2023-04-01T02:45:40;51725.28;;;-145.06;54.52
6530;BME280;3298;42.688;23.366;2023-04-01T02:48:06;51733.47;;;-145.06;54.42
6530;BME280;3298;42.688;23.366;2023-04-01T02:50:33;51737.56;;;-145.06;54.83
6530;BME280;3298;42.688;23.366;2023-04-01T02:53:00;51749.84;;;-145.06;54.67
6530;BME280;3298;42.688;23.366;2023-04-01T02:55:29;51733.47;;;-145.06;55.16
6530;BME280;3298;42.688;23.366;2023-04-01T02:57:57;51721.19;;;-145.06;56.31
6530;BME280;3298;42.688;23.366;2023-04-01T03:00:24;51733.47;;;-145.06;56.42
6530;BME280;3298;42.688;23.366;2023-04-01T03:02:51;51745.75;;;-145.06;55.88
6530;BME280;3298;42.688;23.366;2023-04-01T03:05:18;51729.38;;;-145.06;56.05
6530;BME280;3298;42.688;23.366;2023-04-01T03:07:45;51715.03;;;-145.06;55.97
6530;BME280;3298;42.688;23.366;2023-04-01T03:10:12;51731.41;;;-145.06;54.24
6530;BME280;3298;42.688;23.366;2023-04-01T03:12:39;51768.25;;;-145.06;54.54
6530;BME280;3298;42.688;23.366;2023-04-01T03:15:11;51725.28;;;-145.06;55.02
6530;BME280;3298;42.688;23.366;2023-04-01T03:17:40;51710.94;;;-145.06;55.33
6530;BME280;3298;42.688;23.366;2023-04-01T03:20:08;51737.56;;;-145.06;55.49
6530;BME280;3298;42.688;23.366;2023-04-01T03:22:36;51749.84;;;-145.06;54.94
6530;BME280;3298;42.688;23.366;2023-04-01T03:25:04;51715.03;;;-145.06;55.13
6530;BME280;3298;42.688;23.366;2023-04-01T03:27:31;51737.56;;;-145.06;54.91
6530;BME280;3298;42.688;23.366;2023-04-01T03:29:58;51721.19;;;-145.06;55.08
6530;BME280;3298;42.688;23.366;2023-04-01T03:32:26;51749.84;;;-145.06;54.87
6530;BME280;3298;42.688;23.366;2023-04-01T03:34:53;51745.75;;;-145.06;55.25
6530;BME280;3298;42.688;23.366;2023-04-01T03:37:20;51721.19;;;-145.06;55.62
6530;BME280;3298;42.688;23.366;2023-04-01T03:39:47;51755.97;;;-145.06;56.27
6530;BME280;3298;42.688;23.366;2023-04-01T03:42:13;51733.47;;;-145.06;56.11
6530;BME280;3298;42.688;23.366;2023-04-01T03:44:40;51733.47;;;-145.06;56.06
6530;BME280;3298;42.688;23.366;2023-04-01T03:47:07;51749.84;;;-145.06;56.90
6530;BME280;3298;42.688;23.366;2023-04-01T03:49:37;51758.03;;;-145.06;56.79
6530;BME280;3298;42.688;23.366;2023-04-01T03:52:03;51733.47;;;-145.06;56.61
6530;BME280;3298;42.688;23.366;2023-04-01T03:54:30;51729.38;;;-145.06;56.74
6530;BME280;3298;42.688;23.366;2023-04-01T03:56:57;51774.41;;;-145.06;56.60
6530;BME280;3298;42.688;23.366;2023-04-01T03:59:24;51735.50;;;-145.06;58.06
6530;BME280;3298;42.688;23.366;2023-04-01T04:01:51;51737.56;;;-145.06;56.78
6530;BME280;3298;42.688;23.366;2023-04-01T04:04:18;51745.75;;;-145.06;56.82
6530;BME280;3298;42.688;23.366;2023-04-01T04:06:46;51747.78;;;-145.06;56.98
6530;BME280;3298;42.688;23.366;2023-04-01T04:09:13;51741.66;;;-145.06;56.50
6530;BME280;3298;42.688;23.366;2023-04-01T04:11:40;51735.50;;;-145.06;57.10
6530;BME280;3298;42.688;23.366;2023-04-01T04:14:07;51719.13;;;-145.06;57.01
6530;BME280;3298;42.688;23.366;2023-04-01T04:16:34;51731.41;;;-145.06;57.05
6530;BME280;3298;42.688;23.366;2023-04-01T04:19:01;51717.09;;;-145.06;57.11
6530;BME280;3298;42.688;23.366;2023-04-01T04:21:28;51747.78;;;-145.06;57.97
6530;BME280;3298;42.688;23.366;2023-04-01T04:23:58;51704.81;;;-145.06;57.99
6530;BME280;3298;42.688;23.366;2023-04-01T04:26:25;51749.84;;;-145.06;58.07
6530;BME280;3298;42.688;23.366;2023-04-01T04:28:53;51729.38;;;-145.06;58.57
6530;BME280;3298;42.688;23.366;2023-04-01T04:31:21;51733.47;;;-145.06;58.65
6530;BME280;3298;42.688;23.366;2023-04-01T04:33:48;51739.59;;;-145.06;59.46
6530;BME280;3298;42.688;23.366;2023-04-01T04:36:15;51735.50;;;-145.06;59.45
6530;BME280;3298;42.688;23.366;2023-04-01T04:38:42;51713.00;;;-145.06;59.80
6530;BME280;3298;42.688;23.366;2023-04-01T04:41:11;51727.31;;;-145.06;59.22
6530;BME280;3298;42.688;23.366;2023-04-01T04:43:49;51721.19;;;-145.06;58.79
6530;BME280;3298;42.688;23.366;2023-04-01T04:46:16;51739.59;;;-145.06;58.53
6530;BME280;3298;42.688;23.366;2023-04-01T04:48:43;51727.31;;;-145.06;57.69
6530;BME280;3298;42.688;23.366;2023-04-01T04:51:13;51721.19;;;-145.06;57.56
6530;BME280;3298;42.688;23.366;2023-04-01T04:53:40;51745.75;;;-145.06;56.52
6530;BME280;3298;42.688;23.366;2023-04-01T04:56:06;51741.66;;;-145.06;56.16
6530;BME280;3298;42.688;23.366;2023-04-01T04:58:35;51758.03;;;-145.06;56.29
6530;BME280;3298;42.688;23.366;2023-04-01T05:01:06;51745.75;;;-145.06;56.10
6530;BME280;3298;42.688;23.366;2023-04-01T05:03:32;51710.94;;;-145.06;56.04
6530;BME280;3298;42.688;23.366;2023-04-01T05:05:59;51741.66;;;-145.06;56.18
6530;BME280;3298;42.688;23.366;2023-04-01T05:08:26;51770.31;;;-145.06;55.19
6530;BME280;3298;42.688;23.366;2023-04-01T05:10:53;51739.59;;;-145.06;55.96
6530;BME280;3298;42.688;23.366;2023-04-01T05:13:19;51729.38;;;-145.06;55.95
6530;BME280;3298;42.688;23.366;2023-04-01T05:15:48;51739.59;;;-145.06;55.72
6530;BME280;3298;42.688;23.366;2023-04-01T05:18:14;51758.03;;;-145.06;55.72
6530;BME280;3298;42.688;23.366;2023-04-01T05:20:46;51725.28;;;-145.06;55.95
6530;BME280;3298;42.688;23.366;2023-04-01T05:23:14;51710.94;;;-145.06;54.71
6530;BME280;3298;42.688;23.366;2023-04-01T05:25:41;51719.13;;;-145.06;55.01
6530;BME280;3298;42.688;23.366;2023-04-01T05:28:08;51708.91;;;-145.06;54.59
6530;BME280;3298;42.688;23.366;2023-04-01T05:30:34;51758.03;;;-145.06;54.62
6530;BME280;3298;42.688;23.366;2023-04-01T05:33:03;51741.66;;;-145.06;55.07
6530;BME280;3298;42.688;23.366;2023-04-01T05:35:29;51737.56;;;-145.06;54.26
6530;BME280;3298;42.688;23.366;2023-04-01T05:37:56;51747.78;;;-145.06;53.92
6530;BME280;3298;42.688;23.366;2023-04-01T05:40:23;51737.56;;;-145.06;53.71
6530;BME280;3298;42.688;23.366;2023-04-01T05:42:50;51725.28;;;-145.06;53.74
6530;BME280;3298;42.688;23.366;2023-04-01T05:45:16;51729.38;;;-145.06;52.45
6530;BME280;3298;42.688;23.366;2023-04-01T05:47:43;51739.59;;;-145.06;52.63
6530;BME280;3298;42.688;23.366;2023-04-01T05:50:11;51753.94;;;-145.06;52.08
6530;BME280;3298;42.688;23.366;2023-04-01T05:52:38;51717.09;;;-145.06;52.05
6530;BME280;3298;42.688;23.366;2023-04-01T05:55:06;51749.84;;;-145.06;51.99
6530;BME280;3298;42.688;23.366;2023-04-01T05:57:32;51719.13;;;-145.06;51.85
6530;BME280;3298;42.688;23.366;2023-04-01T05:59:59;51727.31;;;-145.06;51.75
6530;BME280;3298;42.688;23.366;2023-04-01T06:02:26;51725.28;;;-145.06;51.84
6530;BME280;3298;42.688;23.366;2023-04-01T06:04:58;51749.84;;;-145.06;51.04
6530;BME280;3298;42.688;23.366;2023-04-01T06:07:30;51764.16;;;-145.06;50.64
6530;BME280;3298;42.688;23.366;2023-04-01T06:09:56;51737.56;;;-145.06;49.98
6530;BME280;3298;42.688;23.366;2023-04-01T06:15:33;51741.66;;;-145.06;49.24
6530;BME280;3298;42.688;23.366;2023-04-01T06:18:19;51768.25;;;-145.06;48.97
6530;BME280;3298;42.688;23.366;2023-04-01T06:20:53;51760.06;;;-145.06;49.27
6530;BME280;3298;42.688;23.366;2023-04-01T06:23:42;51751.88;;;-145.06;49.58
6530;BME280;3298;42.688;23.366;2023-04-01T06:26:24;51745.75;;;-145.06;49.58
6530;BME280;3298;42.688;23.366;2023-04-01T06:31:56;51772.34;;;-145.06;50.38
6530;BME280;3298;42.688;23.366;2023-04-01T06:34:42;51774.41;;;-145.06;50.03
6530;BME280;3298;42.688;23.366;2023-04-01T06:37:27;51760.06;;;-145.06;49.78
6530;BME280;3298;42.688;23.366;2023-04-01T06:40:16;51749.84;;;-145.06;49.80
6530;BME280;3298;42.688;23.366;2023-04-01T06:43:01;51737.56;;;-145.06;49.95
6530;BME280;3298;42.688;23.366;2023-04-01T06:45:38;51764.16;;;-145.06;49.90
6530;BME280;3298;42.688;23.366;2023-04-01T06:48:25;51770.31;;;-145.06;50.35
6530;BME280;3298;42.688;23.366;2023-04-01T06:51:06;51770.31;;;-145.06;50.83
6530;BME280;3298;42.688;23.366;2023-04-01T06:53:39;51741.66;;;-145.06;50.83
6530;BME280;3298;42.688;23.366;2023-04-01T06:56:12;51762.13;;;-145.06;51.13
6530;BME280;3298;42.688;23.366;2023-04-01T06:58:44;51764.16;;;-145.06;51.15
6530;BME280;3298;42.688;23.366;2023-04-01T07:01:16;51745.75;;;-145.06;50.98
6530;BME280;3298;42.688;23.366;2023-04-01T07:03:49;51747.78;;;-145.06;50.70
6530;BME280;3298;42.688;23.366;2023-04-01T07:06:25;51751.88;;;-145.06;51.13
6530;BME280;3298;42.688;23.366;2023-04-01T07:08:55;51745.75;;;-145.06;51.12
6530;BME280;3298;42.688;23.366;2023-04-01T07:11:29;51768.25;;;-145.06;51.00
6530;BME280;3298;42.688;23.366;2023-04-01T07:14:00;51760.06;;;-145.06;51.68
6530;BME280;3298;42.688;23.366;2023-04-01T07:16:31;51755.97;;;-145.06;51.27
6530;BME280;3298;42.688;23.366;2023-04-01T07:19:02;51753.94;;;-145.06;51.19
6530;BME280;3298;42.688;23.366;2023-04-01T07:21:33;51755.97;;;-145.06;50.94
6530;BME280;3298;42.688;23.366;2023-04-01T07:24:05;51758.03;;;-145.06;51.02
6530;BME280;3298;42.688;23.366;2023-04-01T07:26:34;51755.97;;;-145.06;51.12
6530;BME280;3298;42.688;23.366;2023-04-01T07:29:01;51741.66;;;-145.06;51.22
6530;BME280;3298;42.688;23.366;2023-04-01T07:31:40;51758.03;;;-145.06;51.36
6530;BME280;3298;42.688;23.366;2023-04-01T07:34:14;51751.88;;;-145.06;50.96
6530;BME280;3298;42.688;23.366;2023-04-01T07:36:46;51727.31;;;-145.06;50.55
6530;BME280;3298;42.688;23.366;2023-04-01T07:39:25;51745.75;;;-145.06;50.31
6530;BME280;3298;42.688;23.366;2023-04-01T07:42:01;51770.31;;;-145.06;50.21
6530;BME280;3298;42.688;23.366;2023-04-01T07:44:38;51772.34;;;-145.06;49.68
6530;BME280;3298;42.688;23.366;2023-04-01T07:47:34;51782.59;;;-145.06;50.07
6530;BME280;3298;42.688;23.366;2023-04-01T07:50:12;51792.81;;;-145.06;49.80
6530;BME280;3298;42.688;23.366;2023-04-01T07:52:47;51784.63;;;-145.06;49.27
6530;BME280;3298;42.688;23.366;2023-04-01T07:55:19;51753.94;;;-145.06;48.81
6530;BME280;3298;42.688;23.366;2023-04-01T07:57:55;51782.59;;;-145.06;48.64
6530;BME280;3298;42.688;23.366;2023-04-01T08:00:27;51782.59;;;-145.06;48.47
6530;BME280;3298;42.688;23.366;2023-04-01T08:03:15;51770.31;;;-145.06;48.48
6530;BME280;3298;42.688;23.366;2023-04-01T08:05:52;51762.13;;;-145.06;48.42
6530;BME280;3298;42.688;23.366;2023-04-01T08:08:28;51751.88;;;-145.06;48.54
6530;BME280;3298;42.688;23.366;2023-04-01T08:11:06;51792.81;;;-145.06;48.58
6530;BME280;3298;42.688;23.366;2023-04-01T08:13:42;51760.06;;;-145.06;48.35
6530;BME280;3298;42.688;23.366;2023-04-01T08:16:16;51764.16;;;-145.06;48.32
6530;BME280;3298;42.688;23.366;2023-04-01T08:18:51;51760.06;;;-145.06;48.78
6530;BME280;3298;42.688;23.366;2023-04-01T08:21:23;51778.50;;;-145.06;49.02
6530;BME280;3298;42.688;23.366;2023-04-01T08:23:52;51762.13;;;-145.06;48.19
6530;BME280;3298;42.688;23.366;2023-04-01T08:26:28;51751.88;;;-145.06;48.28
6530;BME280;3298;42.688;23.366;2023-04-01T08:29:03;51747.78;;;-145.06;47.72
6530;BME280;3298;42.688;23.366;2023-04-01T08:31:34;51745.75;;;-145.06;47.31
6530;BME280;3298;42.688;23.366;2023-04-01T08:34:03;51764.16;;;-145.06;47.03
6530;BME280;3298;42.688;23.366;2023-04-01T08:36:34;51758.03;;;-145.06;46.76
6530;BME280;3298;42.688;23.366;2023-04-01T08:39:05;51796.91;;;-145.06;46.34
6530;BME280;3298;42.688;23.366;2023-04-01T08:42:15;51788.72;;;-145.06;46.16
6530;BME280;3298;42.688;23.366;2023-04-01T08:45:05;51790.78;;;-145.06;45.65
6530;BME280;3298;42.688;23.366;2023-04-01T08:47:45;51788.72;;;-145.06;45.89
6530;BME280;3298;42.688;23.366;2023-04-01T08:53:33;51801.00;;;-145.06;46.71
6530;BME280;3298;42.688;23.366;2023-04-01T08:56:09;51776.44;;;-145.06;46.39
6530;BME280;3298;42.688;23.366;2023-04-01T08:58:51;51796.91;;;-145.06;45.71
6530;BME280;3298;42.688;23.366;2023-04-01T09:01:42;51786.69;;;-145.06;44.75
6530;BME280;3298;42.688;23.366;2023-04-01T09:04:24;51792.81;;;-145.06;43.96
6530;BME280;3298;42.688;23.366;2023-04-01T09:07:04;51798.97;;;-145.06;42.97
6530;BME280;3298;42.688;23.366;2023-04-01T09:09:49;51807.16;;;-145.06;42.66
6530;BME280;3298;42.688;23.366;2023-04-01T09:12:33;51807.16;;;-145.06;42.40
6530;BME280;3298;42.688;23.366;2023-04-01T09:15:18;51803.06;;;-145.06;42.49
6530;BME280;3298;42.688;23.366;2023-04-01T09:18:17;51801.00;;;-145.06;41.74
6530;BME280;3298;42.688;23.366;2023-04-01T09:27:02;51815.34;;;-145.06;41.52
6530;BME280;3298;42.688;23.366;2023-04-01T09:32:37;51796.91;;;-145.06;41.93
6530;BME280;3298;42.688;23.366;2023-04-01T09:35:21;51790.78;;;-145.06;42.21
6530;BME280;3298;42.688;23.366;2023-04-01T09:37:54;51790.78;;;-145.06;42.05
6530;BME280;3298;42.688;23.366;2023-04-01T09:40:35;51811.25;;;-145.06;41.85
6530;BME280;3298;42.688;23.366;2023-04-01T09:43:20;51776.44;;;-145.06;41.92
6530;BME280;3298;42.688;23.366;2023-04-01T09:46:00;51794.88;;;-145.06;41.96
6530;BME280;3298;42.688;23.366;2023-04-01T09:51:48;51813.28;;;-145.06;42.04
6530;BME280;3298;42.688;23.366;2023-04-01T09:54:34;51792.81;;;-145.06;42.25
6530;BME280;3298;42.688;23.366;2023-04-01T10:00:33;51794.88;;;-145.06;43.04
6530;BME280;3298;42.688;23.366;2023-04-01T10:06:50;51819.44;;;-145.06;43.35
6530;BME280;3298;42.688;23.366;2023-04-01T10:12:47;51790.78;;;-145.06;43.31
6530;BME280;3298;42.688;23.366;2023-04-01T10:15:37;51766.22;;;-145.06;43.94
6530;BME280;3298;42.688;23.366;2023-04-01T10:22:07;51921.75;;;-145.06;43.09
6530;BME280;3298;42.688;23.366;2023-04-01T10:27:50;51809.19;;;-145.06;43.67
6530;BME280;3298;42.688;23.366;2023-04-01T10:30:53;51798.97;;;-145.06;43.63
6530;BME280;3298;42.688;23.366;2023-04-01T10:33:43;51774.41;;;-145.06;43.87
6530;BME280;3298;42.688;23.366;2023-04-01T10:36:43;51778.50;;;-145.06;43.83
6530;BME280;3298;42.688;23.366;2023-04-01T10:39:37;51794.88;;;-145.06;44.34
6530;BME280;3298;42.688;23.366;2023-04-01T10:42:27;51815.34;;;-145.06;44.24
6530;BME280;3298;42.688;23.366;2023-04-01T10:45:32;51782.59;;;-145.06;44.20
6530;BME280;3298;42.688;23.366;2023-04-01T10:48:20;51788.72;;;-145.06;43.96
6530;BME280;3298;42.688;23.366;2023-04-01T10:51:01;51778.50;;;-145.06;43.99
6530;BME280;3298;42.688;23.366;2023-04-01T10:53:37;51794.88;;;-145.06;44.68
6530;BME280;3298;42.688;23.366;2023-04-01T10:56:41;51786.69;;;-145.06;45.03
6530;BME280;3298;42.688;23.366;2023-04-01T11:02:30;51796.91;;;-145.06;44.45
6530;BME280;3298;42.688;23.366;2023-04-01T11:08:43;51772.34;;;-145.06;45.01
6530;BME280;3298;42.688;23.366;2023-04-01T11:23:32;51792.81;;;-145.06;43.52
6530;BME280;3298;42.688;23.366;2023-04-01T11:26:09;51798.97;;;-145.06;43.99
6530;BME280;3298;42.688;23.366;2023-04-01T11:31:54;51786.69;;;-145.06;43.64
6530;BME280;3298;42.688;23.366;2023-04-01T11:35:12;51803.06;;;-145.06;44.11
6530;BME280;3298;42.688;23.366;2023-04-01T11:37:52;51772.34;;;-145.06;44.46
6530;BME280;3298;42.688;23.366;2023-04-01T11:40:28;51784.63;;;-145.06;45.94
6530;BME280;3298;42.688;23.366;2023-04-01T11:43:01;51803.06;;;-145.06;46.49
6530;BME280;3298;42.688;23.366;2023-04-01T11:45:36;51796.91;;;-145.06;47.99
6530;BME280;3298;42.688;23.366;2023-04-01T11:48:35;51780.53;;;-145.06;48.61
6530;BME280;3298;42.688;23.366;2023-04-01T11:51:25;51794.88;;;-145.06;51.75
6530;BME280;3298;42.688;23.366;2023-04-01T11:54:00;51768.25;;;-145.06;55.31
6530;BME280;3298;42.688;23.366;2023-04-01T11:56:41;51766.22;;;-145.06;60.91
6530;BME280;3298;42.688;23.366;2023-04-01T11:59:39;51778.50;;;-145.06;66.20
6530;BME280;3298;42.688;23.366;2023-04-01T12:02:18;51758.03;;;-145.06;71.69
6530;BME280;3298;42.688;23.366;2023-04-01T12:05:05;51766.22;;;-145.06;72.94
6530;BME280;3298;42.688;23.366;2023-04-01T12:08:04;51766.22;;;-145.06;73.98
6530;BME280;3298;42.688;23.366;2023-04-01T12:10:39;51776.44;;;-145.06;74.81
6530;BME280;3298;42.688;23.366;2023-04-01T12:13:17;51794.88;;;-145.06;75.32
6530;BME280;3298;42.688;23.366;2023-04-01T12:15:59;51776.44;;;-145.06;75.64
6530;BME280;3298;42.688;23.366;2023-04-01T12:18:34;51770.31;;;-145.06;77.17
6530;BME280;3298;42.688;23.366;2023-04-01T12:21:14;51815.34;;;-145.06;75.68
6530;BME280;3298;42.688;23.366;2023-04-01T12:24:02;51794.88;;;-145.06;73.61
6530;BME280;3298;42.688;23.366;2023-04-01T12:26:54;51755.97;;;-145.06;72.37
6530;BME280;3298;42.688;23.366;2023-04-01T12:32:28;51803.06;;;-145.06;71.39
6530;BME280;3298;42.688;23.366;2023-04-01T12:35:10;51794.88;;;-145.06;72.66
6530;BME280;3298;42.688;23.366;2023-04-01T12:37:48;51784.63;;;-145.06;72.59
6530;BME280;3298;42.688;23.366;2023-04-01T12:40:24;51786.69;;;-145.06;74.70
6530;BME280;3298;42.688;23.366;2023-04-01T12:43:14;51772.34;;;-145.06;75.45
6530;BME280;3298;42.688;23.366;2023-04-01T12:45:50;51786.69;;;-145.06;74.10
6530;BME280;3298;42.688;23.366;2023-04-01T12:49:06;51778.50;;;-145.06;75.26
6530;BME280;3298;42.688;23.366;2023-04-01T12:52:03;51809.19;;;-145.06;75.19
6530;BME280;3298;42.688;23.366;2023-04-01T13:00:44;51782.59;;;-145.06;73.88
6530;BME280;3298;42.688;23.366;2023-04-01T13:03:27;51766.22;;;-145.06;75.26
6530;BME280;3298;42.688;23.366;2023-04-01T13:06:18;51786.69;;;-145.06;80.88
6530;BME280;3298;42.688;23.366;2023-04-01T13:08:52;51768.25;;;-145.06;80.00
6530;BME280;3298;42.688;23.366;2023-04-01T13:11:30;51762.13;;;-145.06;79.27
6530;BME280;3298;42.688;23.366;2023-04-01T13:14:40;51807.16;;;-145.06;78.58
6530;BME280;3298;42.688;23.366;2023-04-01T13:17:16;51794.88;;;-145.06;81.29
6530;BME280;3298;42.688;23.366;2023-04-01T13:19:48;51827.63;;;-145.06;84.35
6530;BME280;3298;42.688;23.366;2023-04-01T13:22:21;51811.25;;;-145.06;80.00
6530;BME280;3298;42.688;23.366;2023-04-01T13:24:54;51839.91;;;-145.06;80.10
6530;BME280;3298;42.688;23.366;2023-04-01T13:27:30;51819.44;;;-145.06;76.44
6530;BME280;3298;42.688;23.366;2023-04-01T13:30:08;51805.09;;;-145.06;76.96
6530;BME280;3298;42.688;23.366;2023-04-01T13:32:47;51803.06;;;-145.06;74.69
6530;BME280;3298;42.688;23.366;2023-04-01T13:35:26;51798.97;;;-145.06;75.24
6530;BME280;3298;42.688;23.366;2023-04-01T13:38:10;51803.06;;;-145.06;73.12
6530;BME280;3298;42.688;23.366;2023-04-01T13:40:51;51813.28;;;-145.06;72.32
6530;BME280;3298;42.688;23.366;2023-04-01T13:43:23;51803.06;;;-145.06;72.93
6530;BME280;3298;42.688;23.366;2023-04-01T13:46:09;51798.97;;;-145.06;74.54
6530;BME280;3298;42.688;23.366;2023-04-01T13:52:00;51786.69;;;-145.06;72.48
6530;BME280;3298;42.688;23.366;2023-04-01T13:54:51;51794.88;;;-145.06;74.00
6530;BME280;3298;42.688;23.366;2023-04-01T13:57:44;51821.47;;;-145.06;73.28
6530;BME280;3298;42.688;23.366;2023-04-01T14:00:27;51780.53;;;-145.06;70.93
6530;BME280;3298;42.688;23.366;2023-04-01T14:03:13;51796.91;;;-145.06;69.40
6530;BME280;3298;42.688;23.366;2023-04-01T14:05:56;51782.59;;;-145.06;69.72
6530;BME280;3298;42.688;23.366;2023-04-01T14:08:36;51805.09;;;-145.06;70.65
6530;BME280;3298;42.688;23.366;2023-04-01T14:11:16;51807.16;;;-145.06;68.13
6530;BME280;3298;42.688;23.366;2023-04-01T14:13:52;51778.50;;;-145.06;67.61
6530;BME280;3298;42.688;23.366;2023-04-01T14:16:53;51770.31;;;-145.06;65.05
6530;BME280;3298;42.688;23.366;2023-04-01T14:19:39;51794.88;;;-145.06;64.78
6530;BME280;3298;42.688;23.366;2023-04-01T14:22:21;51794.88;;;-145.06;65.48
6530;BME280;3298;42.688;23.366;2023-04-01T14:25:04;51798.97;;;-145.06;65.86
6530;BME280;3298;42.688;23.366;2023-04-01T14:27:46;51753.94;;;-145.06;65.82
6530;BME280;3298;42.688;23.366;2023-04-01T14:30:43;51766.22;;;-145.06;64.00
6530;BME280;3298;42.688;23.366;2023-04-01T14:33:23;51839.91;;;-145.06;63.25
6530;BME280;3298;42.688;23.366;2023-04-01T14:36:04;51758.03;;;-145.06;64.30
6530;BME280;3298;42.688;23.366;2023-04-01T14:38:46;51796.91;;;-145.06;64.19
6530;BME280;3298;42.688;23.366;2023-04-01T14:41:20;51778.50;;;-145.06;63.93
6530;BME280;3298;42.688;23.366;2023-04-01T14:44:18;51801.00;;;-145.06;61.63
6530;BME280;3298;42.688;23.366;2023-04-01T14:47:13;51760.06;;;-145.06;61.31
6530;BME280;3298;42.688;23.366;2023-04-01T14:49:50;51803.06;;;-145.06;61.57